createdAt,value
2023-01-11T00:02:37.427Z,99275.12
2023-01-11T00:05:44.852Z,99275.81
2023-01-11T00:08:50.983Z,99276.75
2023-01-11T00:11:57.077Z,99278.16
2023-01-11T00:15:02.988Z,99279.45
2023-01-11T00:18:09.201Z,99280.84
2023-01-11T00:21:13.573Z,99286.27
2023-01-11T00:24:19.608Z,99287.96
2023-01-11T00:27:25.927Z,99290.86
2023-01-11T00:30:30.379Z,99292.55
2023-01-11T00:33:37.052Z,99295.15
2023-01-11T00:36:43.221Z,99293.67
2023-01-11T00:39:49.347Z,99294.64
2023-01-11T00:43:12.989Z,99293.59
2023-01-11T00:46:35.708Z,99295.42
2023-01-11T00:49:41.772Z,99299.20
2023-01-11T00:52:48.047Z,99302.30
2023-01-11T00:55:52.363Z,99302.25
2023-01-11T00:58:58.576Z,99300.63
2023-01-11T01:02:04.884Z,99302.41
2023-01-11T01:05:09.997Z,99299.83
2023-01-11T01:08:16.090Z,99297.55
2023-01-11T01:11:22.694Z,99299.48
2023-01-11T01:14:30.002Z,99298.91
2023-01-11T01:17:35.998Z,99296.32
2023-01-11T01:20:42.356Z,99297.80
2023-01-11T01:23:46.807Z,99301.92
2023-01-11T01:26:53.011Z,99302.91
2023-01-11T01:29:59.188Z,99301.12
2023-01-11T01:33:05.156Z,99302.40
2023-01-11T01:36:12.146Z,99304.61
2023-01-11T01:39:18.148Z,99306.09
2023-01-11T01:42:24.531Z,99304.56
2023-01-11T01:45:30.949Z,99300.23
2023-01-11T01:48:37.757Z,99290.35
2023-01-11T01:51:47.816Z,99291.45
2023-01-11T01:54:53.921Z,99295.86
2023-01-11T01:58:02.667Z,99293.14
2023-01-11T02:01:23.081Z,99296.40
2023-01-11T02:04:32.818Z,99298.61
2023-01-11T02:07:43.411Z,99307.27
2023-01-11T02:10:50.958Z,99313.48
2023-01-11T02:13:58.111Z,99314.94
2023-01-11T02:17:04.391Z,99309.05
2023-01-11T02:20:14.594Z,99303.91
2023-01-11T02:23:45.947Z,99311.68
2023-01-11T02:27:17.327Z,99314.52
2023-01-11T02:30:33.213Z,99314.34
2023-01-11T02:33:49.426Z,99319.43
2023-01-11T02:37:08.963Z,99324.43
2023-01-11T02:40:23.866Z,99322.36
2023-01-11T02:43:52.407Z,99324.05
2023-01-11T02:47:01.890Z,99321.82
2023-01-11T02:50:16.379Z,99319.99
2023-01-11T02:53:30.031Z,99318.52
2023-01-11T02:56:40.494Z,99318.20
2023-01-11T02:59:50.048Z,99319.55
2023-01-11T03:03:15.244Z,99315.37
2023-01-11T03:06:23.382Z,99315.02
2023-01-11T03:09:39.623Z,99315.36
2023-01-11T03:12:57.934Z,99314.48
2023-01-11T03:16:24.463Z,99314.58
2023-01-11T03:19:39.096Z,99315.98
2023-01-11T03:22:58.362Z,99314.84
2023-01-11T03:26:16.080Z,99313.56
2023-01-11T03:29:30.745Z,99316.02
2023-01-11T03:32:44.505Z,99312.54
2023-01-11T03:35:55.085Z,99310.23
2023-01-11T03:39:10.538Z,99307.86
2023-01-11T03:42:20.686Z,99306.05
2023-01-11T03:45:28.805Z,99301.25
2023-01-11T03:48:39.946Z,99300.78
2023-01-11T03:51:47.440Z,99298.45
2023-01-11T03:54:54.229Z,99297.31
2023-01-11T03:58:01.453Z,99297.05
2023-01-11T04:01:08.131Z,99302.61
2023-01-11T04:04:14.410Z,99308.38
2023-01-11T04:07:20.563Z,99307.34
2023-01-11T04:10:26.766Z,99306.46
2023-01-11T04:13:34.150Z,99306.31
2023-01-11T04:16:40.247Z,99303.36
2023-01-11T04:19:46.380Z,99299.83
2023-01-11T04:22:52.275Z,99295.34
2023-01-11T04:25:58.281Z,99287.25
2023-01-11T04:29:04.317Z,99289.23
2023-01-11T04:32:10.350Z,99289.86
2023-01-11T04:35:16.638Z,99292.08
2023-01-11T04:38:24.039Z,99291.13
2023-01-11T04:41:47.505Z,99293.39
2023-01-11T04:44:54.215Z,99294.77
2023-01-11T04:48:00.664Z,99299.10
2023-01-11T04:51:07.431Z,99301.33
2023-01-11T04:54:13.392Z,99301.20
2023-01-11T04:57:19.709Z,99297.14
2023-01-11T05:00:24.485Z,99297.91
2023-01-11T05:03:32.003Z,99298.45
2023-01-11T05:06:38.321Z,99299.11
2023-01-11T05:09:43.443Z,99299.79
2023-01-11T05:12:49.554Z,99298.38
2023-01-11T05:15:55.588Z,99298.53
2023-01-11T05:19:02.363Z,99297.63
2023-01-11T05:22:08.556Z,99296.17
2023-01-11T05:25:14.669Z,99294.58
2023-01-11T05:28:20.608Z,99290.92
2023-01-11T05:31:26.978Z,99285.73
2023-01-11T05:34:33.052Z,99286.27
2023-01-11T05:37:38.992Z,99287.57
2023-01-11T05:40:45.226Z,99289.45
2023-01-11T05:44:09.938Z,99284.74
2023-01-11T05:47:16.125Z,99282.98
2023-01-11T05:50:22.645Z,99282.27
2023-01-11T05:53:28.748Z,99275.65
2023-01-11T05:56:35.050Z,99273.23
2023-01-11T05:59:39.501Z,99265.58
2023-01-11T06:02:45.619Z,99263.95
2023-01-11T06:05:52.052Z,99264.70
2023-01-11T06:08:58.232Z,99263.59
2023-01-11T06:12:04.270Z,99268.03
2023-01-11T06:15:11.921Z,99268.37
2023-01-11T06:18:18.854Z,99273.50
2023-01-11T06:21:25.253Z,99272.17
2023-01-11T06:24:29.712Z,99272.58
2023-01-11T06:27:35.811Z,99275.64
2023-01-11T06:30:42.617Z,99278.73
2023-01-11T06:33:48.851Z,99284.00
2023-01-11T06:36:54.837Z,99283.73
2023-01-11T06:40:00.903Z,99285.17
2023-01-11T06:43:08.197Z,99284.04
2023-01-11T06:46:15.933Z,99283.38
2023-01-11T06:49:22.254Z,99277.39
2023-01-11T06:52:28.196Z,99275.63
2023-01-11T06:55:34.179Z,99279.80
2023-01-11T06:58:40.258Z,99280.30
2023-01-11T07:01:46.506Z,99281.11
2023-01-11T07:04:51.251Z,99282.27
2023-01-11T07:07:57.407Z,99285.73
2023-01-11T07:11:04.105Z,99284.96
2023-01-11T07:14:12.274Z,99277.94
2023-01-11T07:17:18.325Z,99267.54
2023-01-11T07:20:25.276Z,99260.73
2023-01-11T07:23:31.310Z,99258.45
2023-01-11T07:26:41.383Z,99261.34
2023-01-11T07:29:47.696Z,99255.00
2023-01-11T07:32:53.738Z,99254.20
2023-01-11T07:36:00.964Z,99251.34
2023-01-11T07:39:07.113Z,99253.33
2023-01-11T07:42:31.619Z,99251.11
2023-01-11T07:45:45.646Z,99250.05
2023-01-11T07:48:52.691Z,99253.83
2023-01-11T07:51:59.043Z,99251.02
2023-01-11T07:55:04.620Z,99251.23
2023-01-11T07:58:12.004Z,99251.24
2023-01-11T08:01:18.019Z,99252.14
2023-01-11T08:04:24.063Z,99260.31
2023-01-11T08:07:30.124Z,99261.89
2023-01-11T08:10:36.294Z,99261.23
2023-01-11T08:13:58.425Z,99259.83
2023-01-11T08:17:04.552Z,99261.40
2023-01-11T08:20:12.645Z,99263.34
2023-01-11T08:23:18.764Z,99258.72
2023-01-11T08:26:25.545Z,99261.78
2023-01-11T08:29:31.899Z,99262.14
2023-01-11T08:32:36.301Z,99260.08
2023-01-11T08:35:42.389Z,99259.18
2023-01-11T08:38:48.572Z,99260.85
2023-01-11T08:41:54.619Z,99261.41
2023-01-11T08:45:00.712Z,99260.56
2023-01-11T08:48:07.502Z,99259.64
2023-01-11T08:51:13.977Z,99257.57
2023-01-11T08:54:20.007Z,99256.11
2023-01-11T08:57:26.079Z,99256.06
2023-01-11T09:00:32.415Z,99255.51
2023-01-11T09:03:36.913Z,99249.79
2023-01-11T09:06:42.832Z,99247.44
2023-01-11T09:09:48.892Z,99248.39
2023-01-11T09:12:55.535Z,99245.94
2023-01-11T09:16:01.831Z,99247.65
2023-01-11T09:19:06.298Z,99249.94
2023-01-11T09:22:12.447Z,99243.73
2023-01-11T09:25:19.460Z,99238.77
2023-01-11T09:28:25.489Z,99231.31
2023-01-11T09:31:31.635Z,99230.18
2023-01-11T09:34:37.594Z,99229.02
2023-01-11T09:37:46.082Z,99217.13
2023-01-11T09:41:01.796Z,99214.41
2023-01-11T09:44:16.559Z,99212.33
2023-01-11T09:47:31.913Z,99202.20
2023-01-11T09:50:43.466Z,99193.58
2023-01-11T09:53:52.446Z,99179.52
2023-01-11T09:57:10.590Z,99169.98
2023-01-11T10:00:27.388Z,99164.77
2023-01-11T10:04:26.014Z,99157.66
2023-01-11T10:18:29.666Z,99150.73
2023-01-11T10:19:19.074Z,99146.83
2023-01-11T10:22:28.061Z,99152.92
2023-01-11T10:25:42.761Z,99153.70
2023-01-11T10:29:17.555Z,99151.02
2023-01-11T10:32:45.906Z,99152.77
2023-01-11T10:36:14.977Z,99153.34
2023-01-11T10:39:46.702Z,99147.95
2023-01-11T10:43:00.075Z,99147.52
2023-01-11T10:46:12.340Z,99138.89
2023-01-11T10:49:35.930Z,99138.13
2023-01-11T10:52:48.160Z,99138.48
2023-01-11T10:56:02.316Z,99135.26
2023-01-11T10:59:22.869Z,99133.27
2023-01-11T11:02:45.217Z,99131.90
2023-01-11T11:06:02.220Z,99130.29
2023-01-11T11:09:15.873Z,99126.55
2023-01-11T11:12:25.105Z,99125.74
2023-01-11T11:15:38.744Z,99121.58
2023-01-11T11:18:45.611Z,99116.36
2023-01-11T11:21:54.037Z,99111.18
2023-01-11T11:25:05.332Z,99098.27
2023-01-11T11:28:28.049Z,99087.53
2023-01-11T11:31:36.441Z,99080.70
2023-01-11T11:34:49.820Z,99072.23
2023-01-11T11:37:57.347Z,99065.43
2023-01-11T11:41:09.323Z,99062.56
2023-01-11T11:44:21.021Z,99061.14
2023-01-11T11:47:27.301Z,99059.08
2023-01-11T11:50:44.812Z,99059.21
2023-01-11T11:53:55.824Z,99055.80
2023-01-11T11:57:14.642Z,99054.28
2023-01-11T12:00:28.062Z,99057.58
2023-01-11T12:03:34.727Z,99058.96
2023-01-11T12:06:41.608Z,99059.48
2023-01-11T12:09:51.118Z,99061.27
2023-01-11T12:12:59.178Z,99058.98
2023-01-11T12:16:08.118Z,99058.30
2023-01-11T12:19:34.825Z,99051.09
2023-01-11T12:22:40.840Z,99046.91
2023-01-11T12:26:01.422Z,99031.89
2023-01-11T12:29:23.103Z,99026.68
2023-01-11T12:32:44.059Z,99017.59
2023-01-11T12:35:57.661Z,99014.18
2023-01-11T12:39:11.242Z,99012.55
2023-01-11T12:42:39.007Z,99014.48
2023-01-11T12:45:51.428Z,99018.77
2023-01-11T12:49:14.573Z,99020.98
2023-01-11T12:52:46.733Z,99014.98
2023-01-11T12:56:04.589Z,99009.91
2023-01-11T12:59:21.774Z,99008.17
2023-01-11T13:02:50.113Z,99004.86
2023-01-11T13:06:03.625Z,99007.37
2023-01-11T13:09:23.625Z,99003.36
2023-01-11T13:12:38.066Z,98999.32
2023-01-11T13:15:53.703Z,98995.42
2023-01-11T13:19:05.879Z,98996.25
2023-01-11T13:22:18.130Z,98993.65
2023-01-11T13:25:27.918Z,98989.69
2023-01-11T13:28:37.820Z,98986.12
2023-01-11T13:31:47.519Z,98981.98
2023-01-11T13:34:59.200Z,98976.62
2023-01-11T13:38:13.380Z,98972.46
2023-01-11T13:41:24.298Z,98978.54
2023-01-11T13:44:37.179Z,98984.64
2023-01-11T13:47:45.998Z,98983.30
2023-01-11T13:50:55.897Z,98980.52
2023-01-11T13:54:08.967Z,98982.27
2023-01-11T13:57:23.324Z,98984.95
2023-01-11T14:00:36.748Z,98982.33
2023-01-11T14:03:49.605Z,98984.47
2023-01-11T14:07:09.902Z,98980.19
2023-01-11T14:10:32.413Z,98975.77
2023-01-11T14:14:12.802Z,98974.71
2023-01-11T14:17:40.141Z,98975.63
2023-01-11T14:20:52.549Z,98973.98
2023-01-11T14:23:59.942Z,98971.05
2023-01-11T14:27:31.667Z,98964.69
2023-01-11T14:31:00.266Z,98960.76
2023-01-11T14:34:26.875Z,98959.65
2023-01-11T14:38:01.796Z,98958.27
2023-01-11T14:41:47.334Z,98956.01
2023-01-11T14:45:07.248Z,98952.23
2023-01-11T14:48:25.800Z,98955.55
2023-01-11T14:51:38.428Z,98954.90
2023-01-11T14:54:46.942Z,98957.27
2023-01-11T14:58:17.577Z,98955.50
2023-01-11T15:01:23.641Z,98948.33
2023-01-11T15:04:30.701Z,98940.77
2023-01-11T15:07:45.013Z,98934.81
2023-01-11T15:10:59.555Z,98938.20
2023-01-11T15:14:15.487Z,98937.49
2023-01-11T15:17:42.680Z,98941.61
2023-01-11T15:20:55.988Z,98947.70
2023-01-11T15:24:02.099Z,98947.19
2023-01-11T15:27:08.494Z,98939.64
2023-01-11T15:30:39.599Z,98937.10
2023-01-11T15:33:55.343Z,98931.95
2023-01-11T15:37:33.171Z,98928.55
2023-01-11T15:40:42.460Z,98922.77
2023-01-11T15:44:04.723Z,98917.81
2023-01-11T15:47:47.361Z,98923.31
2023-01-11T15:51:14.139Z,98928.19
2023-01-11T15:54:41.945Z,98928.05
2023-01-11T15:58:16.574Z,98931.73
2023-01-11T16:01:28.508Z,98930.24
2023-01-11T16:04:40.736Z,98924.11
2023-01-11T16:07:54.451Z,98919.92
2023-01-11T16:11:09.836Z,98916.84
2023-01-11T16:14:39.879Z,98910.95
2023-01-11T16:17:48.627Z,98907.84
2023-01-11T16:21:03.495Z,98903.90
2023-01-11T16:24:15.284Z,98903.72
2023-01-11T16:27:26.928Z,98903.03
2023-01-11T16:30:34.987Z,98904.17
2023-01-11T16:33:41.013Z,98904.95
2023-01-11T16:36:49.232Z,98899.75
2023-01-11T16:39:59.215Z,98900.70
2023-01-11T16:43:09.684Z,98903.33
2023-01-11T16:46:53.124Z,98896.77
2023-01-11T16:50:19.349Z,98887.09
2023-01-11T16:53:26.270Z,98886.65
2023-01-11T16:56:35.462Z,98888.67
2023-01-11T16:59:41.540Z,98887.77
2023-01-11T17:02:50.249Z,98880.92
2023-01-11T17:06:18.606Z,98878.21
2023-01-11T17:09:26.019Z,98878.36
2023-01-11T17:12:32.076Z,98876.27
2023-01-11T17:15:47.977Z,98877.08
2023-01-11T17:18:54.656Z,98875.81
2023-01-11T17:22:06.794Z,98869.91
2023-01-11T17:25:22.109Z,98868.48
2023-01-11T17:28:28.202Z,98869.27
2023-01-11T17:31:37.100Z,98865.48
2023-01-11T17:34:44.044Z,98860.73
2023-01-11T17:37:52.813Z,98855.74
2023-01-11T17:41:01.303Z,98853.61
2023-01-11T17:44:31.893Z,98851.19
2023-01-11T17:47:41.540Z,98843.25
2023-01-11T17:50:54.528Z,98841.74
2023-01-11T17:54:00.963Z,98845.11
2023-01-11T17:57:07.673Z,98847.67
2023-01-11T18:00:25.984Z,98853.88
2023-01-11T18:03:32.526Z,98862.34
2023-01-11T18:06:40.897Z,98865.67
2023-01-11T18:09:50.396Z,98870.71
2023-01-11T18:12:58.177Z,98867.00
2023-01-11T18:16:04.922Z,98860.98
2023-01-11T18:19:31.918Z,98860.34
2023-01-11T18:22:41.896Z,98860.75
2023-01-11T18:25:48.131Z,98863.57
2023-01-11T18:28:54.165Z,98862.01
2023-01-11T18:32:00.211Z,98864.52
2023-01-11T18:35:16.968Z,98862.50
2023-01-11T18:38:30.936Z,98859.85
2023-01-11T18:41:55.771Z,98858.93
2023-01-11T18:45:02.321Z,98859.54
2023-01-11T18:48:13.022Z,98869.16
2023-01-11T18:51:23.115Z,98871.91
2023-01-11T18:54:29.222Z,98874.98
2023-01-11T18:57:35.259Z,98873.01
2023-01-11T19:00:42.325Z,98873.80
2023-01-11T19:03:49.043Z,98880.46
2023-01-11T19:06:55.170Z,98883.52
2023-01-11T19:10:01.711Z,98884.27
2023-01-11T19:13:07.909Z,98888.77
2023-01-11T19:16:13.992Z,98896.46
2023-01-11T19:19:20.554Z,98896.69
2023-01-11T19:22:26.991Z,98890.83
2023-01-11T19:25:33.199Z,98891.17
2023-01-11T19:28:39.797Z,98889.80
2023-01-11T19:31:46.250Z,98888.88
2023-01-11T19:34:53.026Z,98891.02
2023-01-11T19:37:59.472Z,98887.39
2023-01-11T19:41:11.098Z,98889.42
2023-01-11T19:44:17.121Z,98895.61
2023-01-11T19:47:23.345Z,98902.85
2023-01-11T19:50:27.810Z,98904.86
2023-01-11T19:53:34.171Z,98902.36
2023-01-11T19:56:38.497Z,98895.71
2023-01-11T19:59:44.926Z,98905.54
2023-01-11T20:02:51.115Z,98907.85
2023-01-11T20:06:08.291Z,98907.75
2023-01-11T20:09:14.248Z,98907.05
2023-01-11T20:12:20.304Z,98907.86
2023-01-11T20:15:26.704Z,98906.54
2023-01-11T20:18:31.037Z,98901.80
2023-01-11T20:21:37.324Z,98905.80
2023-01-11T20:24:41.635Z,98905.83
2023-01-11T20:27:47.658Z,98905.34
2023-01-11T20:30:54.131Z,98902.52
2023-01-11T20:34:01.334Z,98898.09
2023-01-11T20:37:07.404Z,98888.85
2023-01-11T20:40:14.735Z,98887.33
2023-01-11T20:43:20.651Z,98885.59
2023-01-11T20:46:26.744Z,98883.06
2023-01-11T20:49:32.815Z,98877.45
2023-01-11T20:52:38.816Z,98880.45
2023-01-11T20:55:44.826Z,98881.89
2023-01-11T20:58:52.140Z,98881.58
2023-01-11T21:01:58.296Z,98874.68
2023-01-11T21:05:04.530Z,98870.58
2023-01-11T21:08:10.706Z,98868.27
2023-01-11T21:11:17.999Z,98867.27
2023-01-11T21:14:24.254Z,98863.58
2023-01-11T21:17:30.370Z,98863.48
2023-01-11T21:20:36.730Z,98858.45
2023-01-11T21:23:42.759Z,98857.88
2023-01-11T21:26:48.919Z,98858.90
2023-01-11T21:29:54.951Z,98864.80
2023-01-11T21:33:01.049Z,98871.34
2023-01-11T21:36:11.351Z,98871.83
2023-01-11T21:39:18.154Z,98873.77
2023-01-11T21:42:24.140Z,98875.18
2023-01-11T21:45:30.090Z,98877.43
2023-01-11T21:48:36.782Z,98880.25
2023-01-11T21:51:43.901Z,98884.30
2023-01-11T21:54:52.199Z,98875.86
2023-01-11T21:57:58.289Z,98869.81
2023-01-11T22:01:12.489Z,98870.34
2023-01-11T22:04:20.834Z,98873.33
2023-01-11T22:07:28.434Z,98883.67
2023-01-11T22:10:34.773Z,98881.08
2023-01-11T22:13:40.925Z,98882.08
2023-01-11T22:16:46.935Z,98889.34
2023-01-11T22:19:53.493Z,98894.22
2023-01-11T22:22:59.591Z,98906.73
2023-01-11T22:26:07.961Z,98906.48
2023-01-11T22:29:15.283Z,98904.72
2023-01-11T22:32:21.651Z,98904.69
2023-01-11T22:35:27.936Z,98904.58
2023-01-11T22:38:32.404Z,98905.33
2023-01-11T22:41:40.169Z,98910.20
2023-01-11T22:44:46.578Z,98910.80
2023-01-11T22:47:50.893Z,98910.66
2023-01-11T22:50:57.465Z,98917.71
2023-01-11T22:54:03.518Z,98920.41
2023-01-11T22:57:09.683Z,98922.23
2023-01-11T23:00:16.588Z,98924.96
2023-01-11T23:03:22.764Z,98926.71
2023-01-11T23:06:30.713Z,98926.44
2023-01-11T23:09:36.720Z,98918.05
2023-01-11T23:13:00.644Z,98922.92
2023-01-11T23:16:08.068Z,98928.48
2023-01-11T23:19:16.434Z,98935.46
2023-01-11T23:22:22.458Z,98936.24
2023-01-11T23:25:28.571Z,98934.64
2023-01-11T23:28:34.754Z,98933.20
2023-01-11T23:31:40.783Z,98935.27
2023-01-11T23:34:46.847Z,98934.34
2023-01-11T23:37:54.892Z,98939.89
2023-01-11T23:41:25.443Z,98943.52
2023-01-11T23:44:31.886Z,98939.02
2023-01-11T23:47:37.804Z,98935.61
2023-01-11T23:50:43.851Z,98934.23
2023-01-11T23:53:51.255Z,98937.45
2023-01-11T23:56:57.288Z,98941.94
